createdAt,value
2023-04-15T00:01:19.789Z,24.42
2023-04-15T00:03:47.855Z,24.60
2023-04-15T00:06:14.938Z,24.58
2023-04-15T00:08:41.977Z,23.58
2023-04-15T00:11:08.750Z,22.58
2023-04-15T00:13:35.513Z,23.33
2023-04-15T00:16:02.805Z,23.58
2023-04-15T00:18:30.066Z,22.40
2023-04-15T00:20:56.879Z,22.40
2023-04-15T00:23:23.628Z,21.88
2023-04-15T00:25:50.931Z,23.67
2023-04-15T00:28:18.097Z,22.98
2023-04-15T00:30:46.121Z,22.08
2023-04-15T00:33:14.319Z,21.15
2023-04-15T00:35:41.480Z,22.35
2023-04-15T00:38:08.336Z,22.65
2023-04-15T00:40:35.501Z,21.42
2023-04-15T00:43:02.591Z,22.02
2023-04-15T00:45:29.488Z,22.38
2023-04-15T00:47:56.765Z,24.10
2023-04-15T00:50:23.638Z,23.30
2023-04-15T00:52:50.356Z,24.10
2023-04-15T00:55:17.090Z,24.05
2023-04-15T00:57:44.664Z,23.30
2023-04-15T01:00:12.195Z,23.15
2023-04-15T01:02:39.413Z,23.55
2023-04-15T01:05:07.682Z,23.00
2023-04-15T01:07:34.487Z,23.15
2023-04-15T01:10:03.390Z,23.17
2023-04-15T01:12:33.334Z,23.58
2023-04-15T01:15:01.132Z,23.25
2023-04-15T01:17:28.577Z,22.90
2023-04-15T01:19:57.813Z,22.98
2023-04-15T01:22:26.662Z,22.92
2023-04-15T01:25:09.828Z,21.98
2023-04-15T01:27:39.973Z,23.50
2023-04-15T01:30:08.010Z,23.23
2023-04-15T01:32:35.017Z,24.02
2023-04-15T01:35:02.276Z,23.08
2023-04-15T01:37:29.539Z,21.92
2023-04-15T01:39:57.372Z,22.52
2023-04-15T01:42:24.443Z,21.85
2023-04-15T01:44:51.302Z,23.30
2023-04-15T01:47:18.050Z,23.33
2023-04-15T01:49:44.898Z,24.75
2023-04-15T01:52:11.671Z,23.73
2023-04-15T01:54:38.440Z,23.33
2023-04-15T01:57:05.602Z,23.50
2023-04-15T01:59:32.439Z,24.27
2023-04-15T02:02:00.136Z,24.67
2023-04-15T02:04:28.004Z,24.67
2023-04-15T02:06:54.774Z,24.38
2023-04-15T02:09:21.481Z,22.75
2023-04-15T02:11:48.167Z,23.42
2023-04-15T02:14:14.988Z,24.88
2023-04-15T02:16:41.695Z,24.38
2023-04-15T02:19:08.904Z,26.38
2023-04-15T02:21:35.703Z,24.83
2023-04-15T02:24:02.567Z,24.40
2023-04-15T02:26:32.140Z,25.30
2023-04-15T02:28:59.775Z,23.88
2023-04-15T02:31:26.864Z,26.17
2023-04-15T02:33:53.713Z,25.35
2023-04-15T02:36:21.337Z,25.40
2023-04-15T02:38:48.069Z,26.17
2023-04-15T02:41:14.867Z,24.85
2023-04-15T02:43:41.600Z,26.48
2023-04-15T02:46:08.467Z,24.77
2023-04-15T02:48:36.932Z,25.80
2023-04-15T02:51:19.705Z,25.38
2023-04-15T02:53:47.255Z,24.63
2023-04-15T02:56:15.428Z,25.73
2023-04-15T02:58:43.338Z,25.60
2023-04-15T03:01:10.134Z,25.38
2023-04-15T03:03:37.049Z,25.40
2023-04-15T03:06:03.938Z,24.77
2023-04-15T03:08:30.851Z,24.15
2023-04-15T03:11:00.788Z,25.75
2023-04-15T03:13:27.699Z,24.00
2023-04-15T03:15:54.550Z,24.80
2023-04-15T03:18:21.744Z,25.65
2023-04-15T03:20:48.476Z,25.52
2023-04-15T03:23:15.369Z,24.25
2023-04-15T03:25:42.435Z,25.33
2023-04-15T03:28:09.225Z,25.02
2023-04-15T03:30:36.035Z,25.55
2023-04-15T03:33:02.860Z,24.90
2023-04-15T03:35:29.678Z,25.55
2023-04-15T03:37:56.486Z,26.40
2023-04-15T03:40:23.329Z,24.65
2023-04-15T03:42:50.036Z,25.38
2023-04-15T03:45:16.915Z,27.20
2023-04-15T03:47:43.907Z,25.85
2023-04-15T03:50:11.001Z,27.15
2023-04-15T03:52:38.021Z,26.20
2023-04-15T03:55:05.299Z,25.85
2023-04-15T03:57:32.069Z,25.83
2023-04-15T03:59:58.827Z,26.02
2023-04-15T04:02:25.885Z,26.42
2023-04-15T04:04:52.807Z,25.65
2023-04-15T04:07:19.676Z,25.95
2023-04-15T04:09:47.406Z,26.75
2023-04-15T04:12:14.693Z,25.92
2023-04-15T04:14:41.477Z,25.65
2023-04-15T04:17:08.647Z,25.42
2023-04-15T04:19:35.726Z,25.20
2023-04-15T04:22:02.537Z,24.95
2023-04-15T04:24:29.297Z,26.75
2023-04-15T04:26:57.245Z,26.63
2023-04-15T04:29:24.485Z,24.10
2023-04-15T04:31:51.268Z,24.58
2023-04-15T04:34:18.088Z,26.70
2023-04-15T04:36:44.955Z,25.52
2023-04-15T04:39:11.751Z,26.33
2023-04-15T04:41:38.466Z,25.77
2023-04-15T04:44:05.203Z,25.23
2023-04-15T04:46:31.900Z,25.55
2023-04-15T04:48:58.708Z,25.25
2023-04-15T04:51:26.232Z,25.80
2023-04-15T04:53:53.105Z,23.85
2023-04-15T04:56:19.934Z,27.40
2023-04-15T04:58:46.878Z,24.58
2023-04-15T05:01:13.732Z,24.20
2023-04-15T05:03:40.962Z,24.13
2023-04-15T05:06:09.010Z,23.70
2023-04-15T05:08:36.710Z,23.42
2023-04-15T05:11:04.177Z,24.02
2023-04-15T05:13:30.975Z,23.63
2023-04-15T05:15:57.781Z,22.73
2023-04-15T05:18:24.700Z,22.73
2023-04-15T05:20:51.561Z,22.27
2023-04-15T05:23:18.649Z,22.48
2023-04-15T05:25:45.388Z,22.10
2023-04-15T05:28:12.429Z,22.45
2023-04-15T05:30:40.017Z,20.88
2023-04-15T05:33:06.859Z,19.63
2023-04-15T05:35:33.556Z,19.70
2023-04-15T05:38:00.633Z,19.92
2023-04-15T05:40:28.166Z,20.05
2023-04-15T05:42:56.371Z,20.83
2023-04-15T05:45:23.102Z,20.40
2023-04-15T05:47:50.959Z,18.92
2023-04-15T05:50:17.979Z,20.17
2023-04-15T05:52:46.038Z,19.33
2023-04-15T05:55:12.926Z,18.50
2023-04-15T05:57:39.769Z,17.73
2023-04-15T06:00:07.195Z,17.98
2023-04-15T06:02:34.483Z,17.83
2023-04-15T06:05:01.475Z,17.35
2023-04-15T06:07:28.340Z,17.48
2023-04-15T06:09:55.170Z,16.73
2023-04-15T06:12:21.929Z,17.45
2023-04-15T06:14:48.658Z,16.20
2023-04-15T06:17:15.378Z,15.93
2023-04-15T06:19:42.412Z,15.77
2023-04-15T06:22:09.360Z,15.77
2023-04-15T06:24:37.084Z,16.00
2023-04-15T06:27:03.880Z,15.30
2023-04-15T06:29:30.731Z,14.48
2023-04-15T06:31:57.630Z,14.43
2023-04-15T06:34:24.513Z,14.13
2023-04-15T06:36:51.379Z,14.52
2023-04-15T06:39:18.112Z,14.10
2023-04-15T06:41:45.114Z,13.43
2023-04-15T06:44:11.940Z,13.90
2023-04-15T06:46:38.743Z,12.57
2023-04-15T06:49:05.497Z,12.63
2023-04-15T06:51:32.799Z,12.43
2023-04-15T06:53:59.578Z,12.02
2023-04-15T06:56:27.124Z,13.30
2023-04-15T06:58:54.103Z,12.00
2023-04-15T07:01:21.425Z,12.05
2023-04-15T07:03:48.378Z,9.95
2023-04-15T07:06:15.196Z,10.20
2023-04-15T07:08:41.984Z,10.48
2023-04-15T07:11:08.923Z,9.88
2023-04-15T07:13:35.696Z,10.10
2023-04-15T07:16:02.504Z,10.45
2023-04-15T07:18:29.348Z,10.73
2023-04-15T07:20:56.193Z,9.82
2023-04-15T07:23:23.231Z,9.63
2023-04-15T07:25:49.965Z,9.77
2023-04-15T07:28:16.883Z,9.32
2023-04-15T07:30:43.688Z,9.63
2023-04-15T07:33:10.890Z,10.48
2023-04-15T07:35:37.891Z,9.75
2023-04-15T07:38:04.683Z,9.02
2023-04-15T07:40:31.419Z,9.90
2023-04-15T07:42:58.548Z,8.75
2023-04-15T07:45:25.403Z,9.35
2023-04-15T07:47:52.298Z,8.45
2023-04-15T07:50:19.826Z,9.15
2023-04-15T07:52:46.596Z,8.68
2023-04-15T07:55:13.384Z,9.02
2023-04-15T07:57:40.165Z,9.10
2023-04-15T08:00:07.868Z,9.32
2023-04-15T08:02:36.409Z,8.73
2023-04-15T08:05:05.306Z,8.75
2023-04-15T08:07:32.585Z,8.45
2023-04-15T08:09:59.376Z,8.73
2023-04-15T08:12:26.316Z,8.65
2023-04-15T08:14:53.018Z,8.95
2023-04-15T08:17:20.313Z,8.75
2023-04-15T08:19:48.359Z,9.60
2023-04-15T08:22:18.527Z,8.23
2023-04-15T08:24:46.599Z,8.35
2023-04-15T08:27:13.558Z,9.05
2023-04-15T08:29:40.781Z,8.18
2023-04-15T08:32:07.806Z,7.93
2023-04-15T08:34:35.026Z,8.20
2023-04-15T08:37:01.804Z,9.75
2023-04-15T08:39:28.624Z,8.55
2023-04-15T08:42:07.280Z,8.80
2023-04-15T08:44:37.461Z,10.00
2023-04-15T08:47:08.346Z,8.55
2023-04-15T08:49:40.081Z,9.18
2023-04-15T08:52:07.509Z,8.55
2023-04-15T08:54:35.014Z,8.45
2023-04-15T08:57:05.115Z,8.10
2023-04-15T08:59:32.508Z,8.60
2023-04-15T09:01:59.549Z,9.13
2023-04-15T09:04:27.845Z,9.35
2023-04-15T09:06:54.748Z,9.55
2023-04-15T09:09:22.626Z,8.38
2023-04-15T09:11:51.406Z,8.20
2023-04-15T09:14:18.327Z,8.80
2023-04-15T09:17:04.898Z,8.38
2023-04-15T09:19:34.157Z,7.97
2023-04-15T09:22:02.398Z,7.97
2023-04-15T09:24:40.889Z,8.90
2023-04-15T09:27:08.394Z,7.80
2023-04-15T09:29:35.297Z,8.10
2023-04-15T09:32:13.355Z,7.90
2023-04-15T09:34:40.639Z,7.97
2023-04-15T09:37:08.071Z,8.38
2023-04-15T09:39:52.456Z,7.20
2023-04-15T09:42:24.354Z,8.02
2023-04-15T09:44:55.194Z,7.75
2023-04-15T09:47:32.319Z,7.40
2023-04-15T09:50:00.989Z,7.88
2023-04-15T09:52:28.899Z,7.80
2023-04-15T09:54:58.595Z,8.35
2023-04-15T09:57:25.564Z,8.40
2023-04-15T09:59:52.352Z,9.00
2023-04-15T10:02:23.293Z,8.63
2023-04-15T10:04:52.084Z,9.00
2023-04-15T10:07:21.129Z,8.73
2023-04-15T10:09:49.188Z,9.35
2023-04-15T10:12:17.649Z,10.63
2023-04-15T10:14:45.015Z,12.30
2023-04-15T10:17:13.503Z,11.80
2023-04-15T10:19:41.377Z,12.45
2023-04-15T10:22:08.582Z,11.25
2023-04-15T10:24:35.504Z,12.00
2023-04-15T10:27:04.498Z,10.73
2023-04-15T10:29:31.471Z,10.48
2023-04-15T10:31:59.488Z,10.63
2023-04-15T10:34:27.564Z,10.15
2023-04-15T10:37:05.656Z,11.80
2023-04-15T10:39:43.603Z,13.07
2023-04-15T10:42:19.221Z,11.10
2023-04-15T10:44:51.876Z,11.52
2023-04-15T10:47:20.399Z,13.20
2023-04-15T10:49:53.263Z,12.05
2023-04-15T10:52:25.782Z,12.73
2023-04-15T10:55:04.541Z,11.43
2023-04-15T10:57:36.405Z,11.75
2023-04-15T11:00:09.352Z,11.30
2023-04-15T11:02:54.271Z,13.05
2023-04-15T11:05:23.649Z,14.23
2023-04-15T11:07:55.349Z,14.00
2023-04-15T11:10:31.388Z,13.35
2023-04-15T11:12:58.902Z,12.98
2023-04-15T11:15:39.273Z,13.18
2023-04-15T11:18:22.283Z,13.18
2023-04-15T11:20:54.477Z,13.18
2023-04-15T11:23:38.668Z,13.13
2023-04-15T11:26:11.928Z,11.30
2023-04-15T11:28:45.044Z,11.02
2023-04-15T11:31:18.211Z,9.95
2023-04-15T11:34:00.117Z,12.27
2023-04-15T11:36:28.663Z,11.13
2023-04-15T11:38:57.450Z,11.90
2023-04-15T11:41:24.316Z,13.35
2023-04-15T11:43:51.960Z,14.52
2023-04-15T11:46:19.307Z,10.65
2023-04-15T11:48:47.126Z,13.35
2023-04-15T11:51:14.702Z,14.50
2023-04-15T11:53:41.483Z,14.40
2023-04-15T11:56:16.886Z,14.27
2023-04-15T11:58:44.748Z,13.32
2023-04-15T12:01:11.916Z,14.55
2023-04-15T12:03:45.337Z,14.88
2023-04-15T12:06:17.679Z,13.90
2023-04-15T12:09:03.825Z,13.98
2023-04-15T12:11:33.593Z,12.40
2023-04-15T12:14:16.717Z,13.73
2023-04-15T12:16:48.377Z,11.88
2023-04-15T12:19:22.741Z,13.30
2023-04-15T12:21:49.871Z,12.63
2023-04-15T12:24:21.841Z,12.13
2023-04-15T12:27:02.012Z,11.23
2023-04-15T12:29:32.730Z,10.80
2023-04-15T12:32:07.102Z,11.50
2023-04-15T12:34:36.569Z,10.32
2023-04-15T12:37:05.179Z,11.18
2023-04-15T12:39:35.502Z,10.15
2023-04-15T12:42:04.688Z,11.43
2023-04-15T12:44:33.092Z,11.43
2023-04-15T12:47:00.579Z,10.00
2023-04-15T12:49:28.152Z,13.10
2023-04-15T12:51:56.436Z,12.80
2023-04-15T12:54:23.594Z,12.75
2023-04-15T12:56:50.949Z,12.75
2023-04-15T12:59:18.655Z,12.85
2023-04-15T13:01:47.514Z,12.95
2023-04-15T13:04:16.430Z,13.93
2023-04-15T13:06:43.956Z,13.57
2023-04-15T13:09:10.819Z,13.13
2023-04-15T13:11:37.616Z,13.15
2023-04-15T13:14:06.866Z,12.95
2023-04-15T13:16:34.589Z,12.18
2023-04-15T13:19:02.937Z,13.10
2023-04-15T13:21:32.204Z,13.77
2023-04-15T13:23:59.587Z,14.05
2023-04-15T13:26:26.573Z,13.68
2023-04-15T13:28:53.448Z,13.82
2023-04-15T13:31:20.297Z,13.15
2023-04-15T13:33:47.094Z,12.38
2023-04-15T13:36:14.070Z,12.80
2023-04-15T13:38:40.991Z,12.63
2023-04-15T13:41:07.900Z,12.63
2023-04-15T13:43:34.618Z,12.20
2023-04-15T13:46:01.870Z,13.75
2023-04-15T13:48:28.984Z,13.95
2023-04-15T13:50:57.041Z,13.70
2023-04-15T13:53:34.008Z,13.07
2023-04-15T13:56:09.631Z,14.82
2023-04-15T13:58:37.746Z,13.43
2023-04-15T14:01:06.805Z,14.25
2023-04-15T14:03:37.628Z,13.35
2023-04-15T14:06:05.981Z,14.25
2023-04-15T14:08:33.306Z,14.93
2023-04-15T14:11:00.541Z,13.40
2023-04-15T14:13:27.484Z,15.95
2023-04-15T14:15:54.456Z,15.52
2023-04-15T14:18:21.267Z,14.75
2023-04-15T14:20:47.955Z,13.85
2023-04-15T14:23:14.723Z,13.43
2023-04-15T14:25:41.695Z,13.55
2023-04-15T14:28:08.507Z,14.20
2023-04-15T14:30:35.668Z,14.43
2023-04-15T14:33:02.794Z,13.50
2023-04-15T14:35:29.904Z,14.00
2023-04-15T14:37:56.939Z,13.43
2023-04-15T14:40:23.866Z,13.50
2023-04-15T14:42:50.592Z,14.57
2023-04-15T14:45:17.935Z,13.77
2023-04-15T14:47:45.073Z,15.52
2023-04-15T14:50:12.128Z,14.32
2023-04-15T14:52:39.244Z,15.25
2023-04-15T14:55:07.612Z,14.43
2023-04-15T14:57:34.447Z,15.30
2023-04-15T15:00:01.386Z,14.77
2023-04-15T15:02:38.576Z,14.15
2023-04-15T15:05:07.060Z,14.93
2023-04-15T15:07:34.221Z,14.70
2023-04-15T15:10:01.152Z,14.13
2023-04-15T15:12:27.903Z,14.10
2023-04-15T15:14:56.047Z,13.90
2023-04-15T15:17:22.915Z,13.68
2023-04-15T15:19:49.712Z,13.55
2023-04-15T15:22:16.638Z,13.73
2023-04-15T15:24:43.448Z,13.07
2023-04-15T15:27:10.726Z,13.20
2023-04-15T15:29:38.373Z,13.65
2023-04-15T15:32:05.512Z,12.70
2023-04-15T15:34:32.315Z,12.48
2023-04-15T15:37:00.786Z,13.35
2023-04-15T15:39:27.811Z,12.98
2023-04-15T15:41:54.866Z,12.50
2023-04-15T15:44:21.689Z,13.20
2023-04-15T15:46:49.950Z,12.93
2023-04-15T15:49:16.841Z,12.98
2023-04-15T15:51:43.644Z,12.18
2023-04-15T15:54:10.474Z,12.30
2023-04-15T15:56:39.562Z,12.23
2023-04-15T15:59:06.717Z,12.43
2023-04-15T16:01:33.777Z,12.75
2023-04-15T16:04:01.101Z,12.57
2023-04-15T16:06:28.319Z,12.52
2023-04-15T16:08:55.539Z,12.20
2023-04-15T16:11:23.020Z,11.15
2023-04-15T16:13:49.880Z,11.45
2023-04-15T16:16:16.737Z,11.63
2023-04-15T16:18:43.595Z,11.63
2023-04-15T16:21:10.512Z,11.60
2023-04-15T16:23:38.171Z,11.63
2023-04-15T16:26:05.244Z,11.45
2023-04-15T16:28:32.250Z,11.23
2023-04-15T16:30:59.380Z,10.88
2023-04-15T16:33:26.749Z,11.30
2023-04-15T16:35:54.037Z,11.13
2023-04-15T16:38:21.085Z,11.05
2023-04-15T16:40:47.919Z,11.00
2023-04-15T16:43:14.685Z,11.18
2023-04-15T16:45:41.617Z,11.18
2023-04-15T16:48:08.440Z,11.45
2023-04-15T16:50:37.189Z,11.43
2023-04-15T16:53:03.999Z,11.52
2023-04-15T16:55:30.875Z,10.82
2023-04-15T16:58:02.619Z,12.07
2023-04-15T17:00:32.171Z,11.45
2023-04-15T17:03:01.152Z,11.85
2023-04-15T17:05:28.361Z,11.30
2023-04-15T17:07:55.505Z,10.55
2023-04-15T17:10:22.881Z,11.00
2023-04-15T17:12:52.202Z,10.52
2023-04-15T17:15:20.512Z,10.25
2023-04-15T17:17:47.671Z,11.15
2023-04-15T17:20:14.806Z,11.10
2023-04-15T17:22:41.639Z,10.85
2023-04-15T17:25:08.785Z,11.63
2023-04-15T17:27:35.829Z,11.13
2023-04-15T17:30:02.819Z,11.73
2023-04-15T17:32:34.651Z,10.93
2023-04-15T17:35:05.969Z,12.60
2023-04-15T17:37:34.005Z,11.27
2023-04-15T17:40:00.831Z,11.27
2023-04-15T17:42:27.628Z,10.82
2023-04-15T17:44:54.375Z,11.90
2023-04-15T17:47:21.320Z,11.18
2023-04-15T17:49:48.109Z,10.85
2023-04-15T17:52:15.155Z,11.00
2023-04-15T17:54:41.972Z,10.90
2023-04-15T17:57:09.718Z,11.23
2023-04-15T17:59:36.655Z,10.98
2023-04-15T18:02:03.556Z,12.27
2023-04-15T18:04:30.499Z,10.38
2023-04-15T18:06:57.763Z,10.85
2023-04-15T18:09:24.623Z,10.65
2023-04-15T18:11:51.361Z,11.07
2023-04-15T18:14:33.000Z,10.65
2023-04-15T18:17:01.463Z,11.10
2023-04-15T18:19:28.345Z,10.93
2023-04-15T18:21:55.298Z,10.70
2023-04-15T18:24:22.636Z,11.25
2023-04-15T18:26:49.556Z,11.13
2023-04-15T18:29:16.701Z,11.40
2023-04-15T18:31:43.607Z,10.77
2023-04-15T18:34:10.789Z,10.90
2023-04-15T18:36:37.571Z,12.25
2023-04-15T18:39:04.921Z,11.52
2023-04-15T18:41:32.112Z,11.48
2023-04-15T18:44:05.555Z,12.40
2023-04-15T18:46:33.541Z,12.15
2023-04-15T18:49:00.337Z,13.18
2023-04-15T18:51:27.717Z,12.48
2023-04-15T18:53:54.481Z,13.50
2023-04-15T18:56:21.555Z,12.57
2023-04-15T18:59:26.427Z,13.30
2023-04-15T19:01:35.589Z,13.07
2023-04-15T19:04:03.229Z,12.20
2023-04-15T19:06:30.109Z,12.20
2023-04-15T19:08:58.509Z,12.82
2023-04-15T19:11:26.034Z,12.45
2023-04-15T19:13:53.108Z,11.70
2023-04-15T19:16:20.134Z,12.23
2023-04-15T19:18:47.069Z,11.77
2023-04-15T19:21:14.696Z,13.77
2023-04-15T19:23:43.044Z,13.05
2023-04-15T19:26:10.338Z,12.52
2023-04-15T19:28:37.264Z,13.13
2023-04-15T19:31:04.258Z,13.50
2023-04-15T19:33:31.607Z,12.48
2023-04-15T19:36:02.355Z,13.60
2023-04-15T19:38:30.588Z,12.73
2023-04-15T19:40:58.340Z,13.18
2023-04-15T19:43:25.319Z,13.52
2023-04-15T19:45:54.412Z,14.07
2023-04-15T19:48:22.957Z,13.02
2023-04-15T19:50:50.076Z,13.57
2023-04-15T19:53:16.934Z,14.30
2023-04-15T19:55:43.860Z,13.45
2023-04-15T19:58:10.778Z,13.52
2023-04-15T20:00:37.778Z,14.07
2023-04-15T20:03:04.952Z,13.63
2023-04-15T20:05:32.443Z,14.57
2023-04-15T20:08:01.511Z,14.40
2023-04-15T20:10:28.508Z,13.10
2023-04-15T20:12:55.392Z,12.85
2023-04-15T20:15:23.882Z,14.23
2023-04-15T20:17:51.133Z,14.52
2023-04-15T20:20:18.091Z,13.43
2023-04-15T20:22:45.003Z,14.52
2023-04-15T20:25:11.820Z,13.95
2023-04-15T20:27:38.663Z,14.43
2023-04-15T20:30:06.089Z,15.13
2023-04-15T20:32:35.567Z,14.23
2023-04-15T20:35:04.339Z,14.10
2023-04-15T20:37:33.286Z,14.98
2023-04-15T20:40:00.782Z,15.30
2023-04-15T20:42:27.568Z,16.20
2023-04-15T20:44:54.387Z,16.10
2023-04-15T20:47:21.321Z,15.20
2023-04-15T20:49:48.139Z,15.25
2023-04-15T20:52:14.822Z,16.02
2023-04-15T20:54:41.728Z,14.43
2023-04-15T20:57:08.566Z,16.48
2023-04-15T20:59:36.013Z,16.23
2023-04-15T21:02:02.946Z,16.73
2023-04-15T21:04:29.846Z,16.35
2023-04-15T21:06:56.709Z,15.45
2023-04-15T21:09:23.534Z,15.55
2023-04-15T21:14:20.206Z,14.85
2023-04-15T21:16:47.074Z,15.70
2023-04-15T21:19:14.036Z,15.70
2023-04-15T21:21:41.003Z,16.27
2023-04-15T21:24:07.881Z,15.95
2023-04-15T21:26:36.089Z,15.13
2023-04-15T21:29:03.410Z,15.40
2023-04-15T21:31:30.462Z,15.82
2023-04-15T21:33:57.394Z,15.68
2023-04-15T21:36:24.320Z,15.73
2023-04-15T21:38:51.213Z,15.07
2023-04-15T21:41:18.069Z,15.05
2023-04-15T21:43:44.807Z,15.77
2023-04-15T21:46:22.924Z,15.95
2023-04-15T21:48:53.278Z,16.38
2023-04-15T21:51:20.326Z,16.05
2023-04-15T21:53:47.088Z,15.43
2023-04-15T21:56:14.070Z,15.60
2023-04-15T21:58:40.983Z,17.00
2023-04-15T22:01:07.986Z,18.60
2023-04-15T22:03:35.349Z,17.17
2023-04-15T22:06:03.472Z,17.70
2023-04-15T22:08:36.073Z,17.08
2023-04-15T22:13:35.565Z,17.10
2023-04-15T22:16:03.081Z,16.70
2023-04-15T22:18:29.877Z,18.00
2023-04-15T22:20:56.795Z,16.60
2023-04-15T22:23:23.676Z,15.55
2023-04-15T22:25:50.818Z,17.65
2023-04-15T22:28:17.633Z,16.48
2023-04-15T22:30:44.478Z,17.95
2023-04-15T22:33:11.237Z,17.17
2023-04-15T22:35:38.414Z,15.73
2023-04-15T22:38:05.438Z,16.48
2023-04-15T22:40:32.319Z,17.02
2023-04-15T22:42:59.244Z,15.20
2023-04-15T22:45:26.190Z,15.35
2023-04-15T22:47:52.973Z,16.60
2023-04-15T22:50:19.878Z,15.25
2023-04-15T22:52:48.194Z,15.57
2023-04-15T22:55:15.129Z,16.25
2023-04-15T22:57:41.948Z,15.95
2023-04-15T23:00:09.300Z,16.08
2023-04-15T23:02:36.085Z,14.95
2023-04-15T23:05:04.488Z,14.82
2023-04-15T23:07:39.992Z,14.77
2023-04-15T23:10:07.999Z,15.35
2023-04-15T23:12:34.954Z,14.13
2023-04-15T23:15:01.736Z,14.80
2023-04-15T23:17:28.475Z,14.45
2023-04-15T23:19:55.385Z,15.75
2023-04-15T23:22:22.139Z,14.57
2023-04-15T23:24:48.992Z,15.02
2023-04-15T23:27:17.550Z,14.90
2023-04-15T23:29:44.614Z,14.27
2023-04-15T23:32:11.390Z,14.98
2023-04-15T23:34:38.162Z,14.38
2023-04-15T23:37:05.356Z,14.23
2023-04-15T23:39:32.109Z,15.05
2023-04-15T23:41:58.907Z,14.32
2023-04-15T23:44:26.085Z,14.38
2023-04-15T23:46:53.009Z,15.55
2023-04-15T23:49:20.461Z,13.82
2023-04-15T23:51:47.601Z,13.95
2023-04-15T23:54:14.938Z,14.85
2023-04-15T23:56:41.676Z,14.10
2023-04-15T23:59:08.624Z,14.85
